createdAt,value
2019-02-19T00:01:26.049Z,4.80
2019-02-19T00:03:56.571Z,4.80
2019-02-19T00:06:27.283Z,4.70
2019-02-19T00:08:58.316Z,4.80
2019-02-19T00:11:28.852Z,4.70
2019-02-19T00:13:59.394Z,4.80
2019-02-19T00:16:30.044Z,4.90
2019-02-19T00:19:00.613Z,4.90
2019-02-19T00:21:31.196Z,4.80
2019-02-19T00:24:01.831Z,4.80
2019-02-19T00:26:32.455Z,4.70
2019-02-19T00:29:02.996Z,4.80
2019-02-19T00:31:33.593Z,4.70
2019-02-19T00:34:04.196Z,4.70
2019-02-19T00:36:34.812Z,4.80
2019-02-19T00:39:06.232Z,4.80
2019-02-19T00:41:36.946Z,4.90
2019-02-19T00:44:07.814Z,4.80
2019-02-19T00:46:38.758Z,4.80
2019-02-19T00:49:09.314Z,4.80
2019-02-19T00:51:39.956Z,4.70
2019-02-19T00:54:10.505Z,4.80
2019-02-19T00:56:41.071Z,4.80
2019-02-19T00:59:11.702Z,4.80
2019-02-19T01:01:42.299Z,4.70
2019-02-19T01:04:12.870Z,4.70
2019-02-19T01:06:43.535Z,4.70
2019-02-19T01:09:15.208Z,4.70
2019-02-19T01:11:45.741Z,4.70
2019-02-19T01:14:16.255Z,4.70
2019-02-19T01:16:46.900Z,4.60
2019-02-19T01:19:17.508Z,4.60
2019-02-19T01:21:48.053Z,4.70
2019-02-19T01:24:18.577Z,4.70
2019-02-19T01:26:49.216Z,4.80
2019-02-19T01:29:19.838Z,4.80
2019-02-19T01:31:50.448Z,4.90
2019-02-19T01:34:20.980Z,4.90
2019-02-19T01:36:51.625Z,4.90
2019-02-19T01:39:22.184Z,4.80
2019-02-19T01:41:52.768Z,4.80
2019-02-19T01:44:23.445Z,4.80
2019-02-19T01:46:53.990Z,4.90
2019-02-19T01:49:24.640Z,4.90
2019-02-19T01:51:55.312Z,4.80
2019-02-19T01:54:25.980Z,4.80
2019-02-19T01:56:56.590Z,4.90
2019-02-19T01:59:27.155Z,4.80
2019-02-19T02:01:57.747Z,4.90
2019-02-19T02:04:28.327Z,4.90
2019-02-19T02:06:58.867Z,4.90
2019-02-19T02:09:29.451Z,4.90
2019-02-19T02:12:00.492Z,4.90
2019-02-19T02:14:31.420Z,4.90
2019-02-19T02:17:02.376Z,4.90
2019-02-19T02:19:33.302Z,5.00
2019-02-19T02:22:03.923Z,5.00
2019-02-19T02:24:35.484Z,5.00
2019-02-19T02:27:07.455Z,5.10
2019-02-19T02:29:38.081Z,5.10
2019-02-19T02:32:08.710Z,5.10
2019-02-19T02:34:39.373Z,5.10
2019-02-19T02:37:10.099Z,5.10
2019-02-19T02:39:40.600Z,5.10
2019-02-19T02:42:11.180Z,5.10
2019-02-19T02:44:41.808Z,5.10
2019-02-19T02:47:12.408Z,5.10
2019-02-19T02:49:43.037Z,5.10
2019-02-19T02:52:13.671Z,5.10
2019-02-19T02:54:44.213Z,5.10
2019-02-19T02:57:15.065Z,5.10
2019-02-19T02:59:45.979Z,5.10
2019-02-19T03:02:16.947Z,5.10
2019-02-19T03:04:47.982Z,5.10
2019-02-19T03:07:39.929Z,5.10
2019-02-19T03:10:10.851Z,5.10
2019-02-19T03:12:41.464Z,5.20
2019-02-19T03:15:12.641Z,5.20
2019-02-19T03:17:43.714Z,5.20
2019-02-19T03:20:14.801Z,5.20
2019-02-19T03:22:45.383Z,5.20
2019-02-19T03:25:15.941Z,5.20
2019-02-19T03:27:46.601Z,5.20
2019-02-19T03:30:18.162Z,5.20
2019-02-19T03:32:48.834Z,5.20
2019-02-19T03:35:19.440Z,5.20
2019-02-19T03:37:50.061Z,5.20
2019-02-19T03:40:20.614Z,5.10
2019-02-19T03:42:51.140Z,5.10
2019-02-19T03:45:21.843Z,5.20
2019-02-19T03:47:52.482Z,5.10
2019-02-19T03:50:23.117Z,5.10
2019-02-19T03:52:53.743Z,5.10
2019-02-19T03:55:24.338Z,5.20
2019-02-19T03:57:55.145Z,5.20
2019-02-19T04:00:26.866Z,5.20
2019-02-19T04:02:57.452Z,5.10
2019-02-19T04:05:28.029Z,5.10
2019-02-19T04:07:58.698Z,5.10
2019-02-19T04:10:29.259Z,5.10
2019-02-19T04:12:59.938Z,5.10
2019-02-19T04:15:30.833Z,5.10
2019-02-19T04:18:01.432Z,5.10
2019-02-19T04:20:32.052Z,5.10
2019-02-19T04:23:02.751Z,5.10
2019-02-19T04:25:33.320Z,5.10
2019-02-19T04:28:06.635Z,5.20
2019-02-19T04:30:37.195Z,5.10
2019-02-19T04:33:07.793Z,5.10
2019-02-19T04:35:38.385Z,5.10
2019-02-19T04:38:08.928Z,5.00
2019-02-19T04:40:39.457Z,5.00
2019-02-19T04:43:09.965Z,5.10
2019-02-19T04:45:40.549Z,5.00
2019-02-19T04:48:11.253Z,5.20
2019-02-19T04:50:41.823Z,5.20
2019-02-19T04:53:12.439Z,5.10
2019-02-19T04:55:43.023Z,5.20
2019-02-19T04:58:14.739Z,5.20
2019-02-19T05:00:45.256Z,5.20
2019-02-19T05:03:15.835Z,5.20
2019-02-19T05:05:46.456Z,5.20
2019-02-19T05:08:16.994Z,5.20
2019-02-19T05:10:47.511Z,5.10
2019-02-19T05:13:18.044Z,5.10
2019-02-19T05:15:48.565Z,5.20
2019-02-19T05:18:19.155Z,5.10
2019-02-19T05:20:49.765Z,5.10
2019-02-19T05:23:20.328Z,5.10
2019-02-19T05:25:50.896Z,5.00
2019-02-19T05:28:21.490Z,5.00
2019-02-19T05:30:52.117Z,5.00
2019-02-19T05:33:22.751Z,5.00
2019-02-19T05:35:53.315Z,5.10
2019-02-19T05:38:23.917Z,5.10
2019-02-19T05:40:54.412Z,5.00
2019-02-19T05:43:25.405Z,5.10
2019-02-19T05:45:55.904Z,5.00
2019-02-19T05:48:26.536Z,5.10
2019-02-19T05:50:57.034Z,5.10
2019-02-19T05:53:27.563Z,5.10
2019-02-19T05:55:58.136Z,5.10
2019-02-19T05:58:28.766Z,5.10
2019-02-19T06:00:59.293Z,5.10
2019-02-19T06:03:29.829Z,5.10
2019-02-19T06:06:00.349Z,5.00
2019-02-19T06:08:30.941Z,5.00
2019-02-19T06:11:01.448Z,5.00
2019-02-19T06:13:32.048Z,5.10
2019-02-19T06:16:02.540Z,5.10
2019-02-19T06:18:33.217Z,5.10
2019-02-19T06:21:03.809Z,5.20
2019-02-19T06:23:34.441Z,5.10
2019-02-19T06:26:05.013Z,5.10
2019-02-19T06:28:35.648Z,5.10
2019-02-19T06:31:06.177Z,5.10
2019-02-19T06:33:36.720Z,5.10
2019-02-19T06:36:07.264Z,5.10
2019-02-19T06:38:37.798Z,5.10
2019-02-19T06:41:08.403Z,5.10
2019-02-19T06:43:40.106Z,5.00
2019-02-19T06:46:11.817Z,5.00
2019-02-19T06:48:42.448Z,5.10
2019-02-19T06:51:12.998Z,5.10
2019-02-19T06:53:43.507Z,5.10
2019-02-19T06:56:14.153Z,5.10
2019-02-19T06:58:44.701Z,5.10
2019-02-19T07:01:15.915Z,5.10
2019-02-19T07:04:02.661Z,5.20
2019-02-19T07:06:33.364Z,5.10
2019-02-19T07:09:04.923Z,5.10
2019-02-19T07:11:35.446Z,5.20
2019-02-19T07:14:05.982Z,5.20
2019-02-19T07:16:36.608Z,5.20
2019-02-19T07:19:07.240Z,5.20
2019-02-19T07:21:37.762Z,5.20
2019-02-19T07:24:08.423Z,5.20
2019-02-19T07:26:39.036Z,5.20
2019-02-19T07:29:09.571Z,5.20
2019-02-19T07:31:40.156Z,5.20
2019-02-19T07:34:10.839Z,5.20
2019-02-19T07:36:41.421Z,5.20
2019-02-19T07:39:12.007Z,5.20
2019-02-19T07:41:42.508Z,5.30
2019-02-19T07:44:13.020Z,5.30
2019-02-19T07:46:43.516Z,5.40
2019-02-19T07:49:14.146Z,5.30
2019-02-19T07:51:44.809Z,5.30
2019-02-19T07:54:15.392Z,5.40
2019-02-19T07:56:46.027Z,5.40
2019-02-19T07:59:16.653Z,5.40
2019-02-19T08:01:47.192Z,5.40
2019-02-19T08:04:17.809Z,5.40
2019-02-19T08:06:48.340Z,5.30
2019-02-19T08:09:18.890Z,5.40
2019-02-19T08:11:49.512Z,5.40
2019-02-19T08:14:20.071Z,5.40
2019-02-19T08:16:50.730Z,5.40
2019-02-19T08:19:21.289Z,5.50
2019-02-19T08:21:51.782Z,5.50
2019-02-19T08:24:22.378Z,5.40
2019-02-19T08:26:53.000Z,5.50
2019-02-19T08:29:23.515Z,5.50
2019-02-19T08:31:54.061Z,5.50
2019-02-19T08:34:24.694Z,5.60
2019-02-19T08:36:55.324Z,5.70
2019-02-19T08:39:25.842Z,5.70
2019-02-19T08:41:56.353Z,5.70
2019-02-19T08:44:26.965Z,5.70
2019-02-19T08:46:57.553Z,5.70
2019-02-19T08:49:28.056Z,5.70
2019-02-19T08:51:58.713Z,5.70
2019-02-19T08:54:29.250Z,5.70
2019-02-19T08:56:59.758Z,5.70
2019-02-19T08:59:30.339Z,5.70
2019-02-19T09:02:00.898Z,5.80
2019-02-19T09:04:31.423Z,5.80
2019-02-19T09:07:01.949Z,5.80
2019-02-19T09:09:32.557Z,5.90
2019-02-19T09:12:03.158Z,6.00
2019-02-19T09:14:33.712Z,6.10
2019-02-19T09:17:04.295Z,6.10
2019-02-19T09:19:34.855Z,6.10
2019-02-19T09:22:05.692Z,6.10
2019-02-19T09:24:36.333Z,6.10
2019-02-19T09:27:06.856Z,6.00
2019-02-19T09:29:38.616Z,5.90
2019-02-19T09:32:09.248Z,6.00
2019-02-19T09:34:39.877Z,5.90
2019-02-19T09:37:12.780Z,6.00
2019-02-19T09:39:43.315Z,6.00
2019-02-19T09:42:13.813Z,6.00
2019-02-19T09:44:44.325Z,6.10
2019-02-19T09:47:14.856Z,6.10
2019-02-19T09:49:45.520Z,6.00
2019-02-19T09:52:16.068Z,6.10
2019-02-19T09:54:46.698Z,6.10
2019-02-19T09:57:17.228Z,6.10
2019-02-19T09:59:47.761Z,6.10
2019-02-19T10:02:18.385Z,6.20
2019-02-19T10:04:48.895Z,6.30
2019-02-19T10:07:19.505Z,6.40
2019-02-19T10:09:49.992Z,6.40
2019-02-19T10:12:20.605Z,6.40
2019-02-19T10:14:51.164Z,6.40
2019-02-19T10:17:21.764Z,6.40
2019-02-19T10:19:52.410Z,6.50
2019-02-19T10:22:22.996Z,6.50
2019-02-19T10:24:53.517Z,6.70
2019-02-19T10:27:24.103Z,6.60
2019-02-19T10:29:54.653Z,6.70
2019-02-19T10:32:25.518Z,6.80
2019-02-19T10:34:56.097Z,6.90
2019-02-19T10:37:26.621Z,6.90
2019-02-19T10:39:57.136Z,6.90
2019-02-19T10:42:27.722Z,7.00
2019-02-19T10:44:58.316Z,7.10
2019-02-19T10:47:28.811Z,7.10
2019-02-19T10:49:59.365Z,7.10
2019-02-19T10:52:29.848Z,7.00
2019-02-19T10:55:00.436Z,6.90
2019-02-19T10:57:30.928Z,6.90
2019-02-19T11:00:01.498Z,7.00
2019-02-19T11:02:33.256Z,7.00
2019-02-19T11:05:03.787Z,7.10
2019-02-19T11:07:34.368Z,7.10
2019-02-19T11:10:05.587Z,7.10
2019-02-19T11:12:36.059Z,7.30
2019-02-19T11:15:06.912Z,7.30
2019-02-19T11:17:37.500Z,7.30
2019-02-19T11:20:09.669Z,7.40
2019-02-19T11:22:40.179Z,7.40
2019-02-19T11:25:12.048Z,7.50
2019-02-19T11:27:42.665Z,7.60
2019-02-19T11:30:15.548Z,7.50
2019-02-19T11:32:46.084Z,7.50
2019-02-19T11:35:16.600Z,7.50
2019-02-19T11:37:47.168Z,7.50
2019-02-19T11:40:17.714Z,7.50
2019-02-19T11:42:48.320Z,7.50
2019-02-19T11:45:18.939Z,7.40
2019-02-19T11:47:50.764Z,7.40
2019-02-19T11:50:21.344Z,7.30
2019-02-19T11:52:51.960Z,7.30
2019-02-19T11:55:22.507Z,7.30
2019-02-19T11:57:53.129Z,7.30
2019-02-19T12:00:29.649Z,7.20
2019-02-19T12:03:00.155Z,7.30
2019-02-19T12:05:30.688Z,7.30
2019-02-19T12:08:01.299Z,7.30
2019-02-19T12:10:31.917Z,7.30
2019-02-19T12:13:02.407Z,7.30
2019-02-19T12:15:35.209Z,7.40
2019-02-19T12:18:05.156Z,7.30
2019-02-19T12:20:35.792Z,7.30
2019-02-19T12:23:06.364Z,7.20
2019-02-19T12:25:36.886Z,7.30
2019-02-19T12:28:07.475Z,7.20
2019-02-19T12:30:38.128Z,7.20
2019-02-19T12:33:08.740Z,7.20
2019-02-19T12:35:39.369Z,7.20
2019-02-19T12:38:09.956Z,7.20
2019-02-19T12:40:40.535Z,7.20
2019-02-19T12:43:11.136Z,7.20
2019-02-19T12:45:41.693Z,7.20
2019-02-19T12:48:13.373Z,7.30
2019-02-19T12:50:44.123Z,7.20
2019-02-19T12:53:14.572Z,7.30
2019-02-19T12:55:45.171Z,7.20
2019-02-19T12:58:15.786Z,7.20
2019-02-19T13:00:46.342Z,7.20
2019-02-19T13:03:16.948Z,7.10
2019-02-19T13:05:47.584Z,7.10
2019-02-19T13:08:18.128Z,7.10
2019-02-19T13:10:48.768Z,7.10
2019-02-19T13:13:19.397Z,7.10
2019-02-19T13:15:50.016Z,7.10
2019-02-19T13:18:20.608Z,7.10
2019-02-19T13:20:51.275Z,7.20
2019-02-19T13:23:21.799Z,7.10
2019-02-19T13:25:52.463Z,7.10
2019-02-19T13:28:23.007Z,7.10
2019-02-19T13:30:53.521Z,7.10
2019-02-19T13:33:24.025Z,7.10
2019-02-19T13:35:55.577Z,7.10
2019-02-19T13:38:26.175Z,7.10
2019-02-19T13:40:59.208Z,7.10
2019-02-19T13:43:29.812Z,7.10
2019-02-19T13:46:00.399Z,7.10
2019-02-19T13:48:30.972Z,7.10
2019-02-19T13:51:01.562Z,7.10
2019-02-19T13:53:45.024Z,7.20
2019-02-19T13:56:15.570Z,7.20
2019-02-19T13:58:46.116Z,7.20
2019-02-19T14:01:16.693Z,7.20
2019-02-19T14:04:05.821Z,7.20
2019-02-19T14:06:36.338Z,7.20
2019-02-19T14:09:06.925Z,7.20
2019-02-19T14:11:38.905Z,7.20
2019-02-19T14:14:28.380Z,7.10
2019-02-19T14:17:05.121Z,7.10
2019-02-19T14:19:45.476Z,7.20
2019-02-19T14:22:43.774Z,7.10
2019-02-19T14:25:31.783Z,7.10
2019-02-19T14:28:20.138Z,7.10
2019-02-19T14:31:07.149Z,7.10
2019-02-19T14:33:56.755Z,7.00
2019-02-19T14:36:44.589Z,7.00
2019-02-19T14:39:39.197Z,6.90
2019-02-19T14:42:27.249Z,7.00
2019-02-19T14:45:31.744Z,7.00
2019-02-19T14:48:16.288Z,6.90
2019-02-19T14:51:11.309Z,6.90
2019-02-19T14:54:06.836Z,6.90
2019-02-19T14:56:47.411Z,6.90
2019-02-19T14:59:51.718Z,6.90
2019-02-19T15:02:41.138Z,6.90
2019-02-19T15:05:30.517Z,6.90
2019-02-19T15:08:20.142Z,6.90
2019-02-19T15:11:24.468Z,6.90
2019-02-19T15:14:14.408Z,6.90
2019-02-19T15:17:19.220Z,6.90
2019-02-19T15:20:07.226Z,6.90
2019-02-19T15:22:48.279Z,6.90
2019-02-19T15:25:36.479Z,6.90
2019-02-19T15:28:14.429Z,6.90
2019-02-19T15:31:03.877Z,6.90
2019-02-19T15:33:42.322Z,6.90
2019-02-19T15:36:37.802Z,6.90
2019-02-19T15:39:26.038Z,6.90
2019-02-19T15:42:21.307Z,6.90
2019-02-19T15:45:09.670Z,6.90
2019-02-19T15:47:59.122Z,6.80
2019-02-19T15:50:47.447Z,6.80
2019-02-19T15:53:46.011Z,6.90
2019-02-19T15:56:38.329Z,6.90
2019-02-19T15:59:33.758Z,6.80
2019-02-19T16:02:26.226Z,6.80
2019-02-19T16:05:30.650Z,6.80
2019-02-19T16:08:31.832Z,6.80
2019-02-19T16:11:36.656Z,6.80
2019-02-19T16:14:26.068Z,6.80
2019-02-19T16:17:21.412Z,6.80
2019-02-19T16:20:00.158Z,6.80
2019-02-19T16:22:55.538Z,6.80
2019-02-19T16:25:43.740Z,6.90
2019-02-19T16:28:33.158Z,6.90
2019-02-19T16:31:20.910Z,6.90
2019-02-19T16:33:58.247Z,6.90
2019-02-19T16:37:02.598Z,6.90
2019-02-19T16:39:44.576Z,6.80
2019-02-19T16:42:32.324Z,6.90
2019-02-19T16:45:21.760Z,6.90
2019-02-19T16:48:10.549Z,6.90
2019-02-19T16:50:58.844Z,6.90
2019-02-19T16:53:48.249Z,6.90
2019-02-19T16:56:25.583Z,6.80
2019-02-19T16:59:13.792Z,6.90
2019-02-19T17:02:05.847Z,6.80
2019-02-19T17:04:46.806Z,6.80
2019-02-19T17:07:28.237Z,6.80
2019-02-19T17:10:20.703Z,6.80
2019-02-19T17:12:58.256Z,6.80
2019-02-19T17:16:00.499Z,6.80
2019-02-19T17:18:57.249Z,6.80
2019-02-19T17:21:46.656Z,6.80
2019-02-19T17:24:54.406Z,6.80
2019-02-19T17:27:33.150Z,6.80
2019-02-19T17:30:23.543Z,6.80
2019-02-19T17:33:02.165Z,6.70
2019-02-19T17:35:54.348Z,6.80
2019-02-19T17:38:52.685Z,6.80
2019-02-19T17:41:44.740Z,6.80
2019-02-19T17:44:25.893Z,6.80
2019-02-19T17:47:14.991Z,6.80
2019-02-19T17:49:55.036Z,6.80
2019-02-19T17:52:56.824Z,6.80
2019-02-19T17:56:01.189Z,6.80
2019-02-19T17:58:45.607Z,6.80
2019-02-19T18:01:25.834Z,6.80
2019-02-19T18:04:27.521Z,6.80
2019-02-19T18:07:15.933Z,6.80
2019-02-19T18:10:01.530Z,6.80
2019-02-19T18:13:00.086Z,6.80
2019-02-19T18:15:48.068Z,6.80
2019-02-19T18:18:47.164Z,6.80
2019-02-19T18:21:18.917Z,6.90
2019-02-19T18:23:50.442Z,6.90
2019-02-19T18:26:21.053Z,6.90
2019-02-19T18:28:51.605Z,7.00
2019-02-19T18:31:22.182Z,7.00
2019-02-19T18:33:52.677Z,7.00
2019-02-19T18:36:23.321Z,7.00
2019-02-19T18:38:53.833Z,6.90
2019-02-19T18:41:24.456Z,6.90
2019-02-19T18:43:55.061Z,6.90
2019-02-19T18:46:25.608Z,6.80
2019-02-19T18:48:56.275Z,6.80
2019-02-19T18:51:26.815Z,6.80
2019-02-19T18:53:57.523Z,6.80
2019-02-19T18:56:28.118Z,6.80
2019-02-19T18:58:58.662Z,6.70
2019-02-19T19:01:29.534Z,6.70
2019-02-19T19:04:00.039Z,6.70
2019-02-19T19:06:30.675Z,6.70
2019-02-19T19:09:01.222Z,6.70
2019-02-19T19:11:33.716Z,6.80
2019-02-19T19:14:06.789Z,6.80
2019-02-19T19:16:37.921Z,6.80
2019-02-19T19:19:08.464Z,6.80
2019-02-19T19:21:39.660Z,6.80
2019-02-19T19:24:10.757Z,6.80
2019-02-19T19:26:41.701Z,6.70
2019-02-19T19:29:12.629Z,6.80
2019-02-19T19:31:44.520Z,6.80
2019-02-19T19:34:15.126Z,6.70
2019-02-19T19:36:45.786Z,6.80
2019-02-19T19:39:16.293Z,6.80
2019-02-19T19:41:46.915Z,6.80
2019-02-19T19:44:17.528Z,6.80
2019-02-19T19:46:48.506Z,6.70
2019-02-19T19:49:19.045Z,6.70
2019-02-19T19:51:49.659Z,6.70
2019-02-19T19:54:20.607Z,6.70
2019-02-19T19:56:51.253Z,6.70
2019-02-19T19:59:22.074Z,6.70
2019-02-19T20:01:52.649Z,6.70
2019-02-19T20:04:23.245Z,6.70
2019-02-19T20:06:54.200Z,6.60
2019-02-19T20:09:24.957Z,6.60
2019-02-19T20:11:55.478Z,6.60
2019-02-19T20:14:26.380Z,6.60
2019-02-19T20:16:56.930Z,6.60
2019-02-19T20:19:27.641Z,6.70
2019-02-19T20:21:58.708Z,6.70
2019-02-19T20:24:29.316Z,6.70
2019-02-19T20:26:59.944Z,6.60
2019-02-19T20:29:30.687Z,6.60
2019-02-19T20:32:01.282Z,6.60
2019-02-19T20:34:32.968Z,6.60
2019-02-19T20:37:04.440Z,6.50
2019-02-19T20:39:35.066Z,6.60
2019-02-19T20:42:05.754Z,6.50
2019-02-19T20:44:36.432Z,6.60
2019-02-19T20:47:06.989Z,6.60
2019-02-19T20:49:37.552Z,6.60
2019-02-19T20:52:08.070Z,6.60
2019-02-19T20:54:38.683Z,6.60
2019-02-19T20:57:09.716Z,6.60
2019-02-19T20:59:40.638Z,6.60
2019-02-19T21:02:11.270Z,6.50
2019-02-19T21:04:41.842Z,6.60
2019-02-19T21:07:12.461Z,6.50
2019-02-19T21:09:44.209Z,6.50
2019-02-19T21:12:16.428Z,6.50
2019-02-19T21:14:47.612Z,6.50
2019-02-19T21:17:18.471Z,6.50
2019-02-19T21:19:49.628Z,6.40
2019-02-19T21:22:20.553Z,6.50
2019-02-19T21:24:51.462Z,6.50
2019-02-19T21:27:22.544Z,6.50
2019-02-19T21:29:53.769Z,6.60
2019-02-19T21:32:24.834Z,6.50
2019-02-19T21:34:55.836Z,6.50
2019-02-19T21:37:26.977Z,6.50
2019-02-19T21:39:57.734Z,6.50
2019-02-19T21:42:28.804Z,6.50
2019-02-19T21:44:59.821Z,6.50
2019-02-19T21:47:30.801Z,6.50
2019-02-19T21:50:01.790Z,6.40
2019-02-19T21:52:33.164Z,6.40
2019-02-19T21:55:04.683Z,6.30
2019-02-19T21:57:36.776Z,6.30
2019-02-19T22:00:08.458Z,6.30
2019-02-19T22:02:41.029Z,6.40
2019-02-19T22:05:12.049Z,6.40
2019-02-19T22:07:43.098Z,6.50
2019-02-19T22:10:14.137Z,6.40
2019-02-19T22:12:45.191Z,6.50
2019-02-19T22:15:16.121Z,6.50
2019-02-19T22:17:47.064Z,6.50
2019-02-19T22:20:36.368Z,6.50
2019-02-19T22:23:07.784Z,6.50
2019-02-19T22:25:38.747Z,6.40
2019-02-19T22:28:09.662Z,6.40
2019-02-19T22:30:40.689Z,6.40
2019-02-19T22:33:11.996Z,6.40
2019-02-19T22:35:42.490Z,6.40
2019-02-19T22:38:13.642Z,6.40
2019-02-19T22:40:44.700Z,6.40
2019-02-19T22:43:15.352Z,6.40
2019-02-19T22:45:45.928Z,6.40
2019-02-19T22:48:16.997Z,6.40
2019-02-19T22:50:48.109Z,6.40
2019-02-19T22:53:36.721Z,6.40
2019-02-19T22:56:23.594Z,6.40
2019-02-19T22:58:54.537Z,6.40
2019-02-19T23:01:35.083Z,6.30
2019-02-19T23:04:06.249Z,6.30
2019-02-19T23:06:37.274Z,6.30
2019-02-19T23:09:08.506Z,6.30
2019-02-19T23:11:39.883Z,6.30
2019-02-19T23:14:11.948Z,6.40
2019-02-19T23:16:43.002Z,6.40
2019-02-19T23:19:14.018Z,6.40
2019-02-19T23:21:46.197Z,6.40
2019-02-19T23:24:17.136Z,6.40
2019-02-19T23:26:48.084Z,6.40
2019-02-19T23:29:19.020Z,6.40
2019-02-19T23:31:50.049Z,6.40
2019-02-19T23:34:21.116Z,6.40
2019-02-19T23:36:58.120Z,6.40
2019-02-19T23:39:29.016Z,6.40
2019-02-19T23:41:59.948Z,6.40
2019-02-19T23:44:31.049Z,6.40
2019-02-19T23:47:01.950Z,6.40
2019-02-19T23:49:32.995Z,6.50
2019-02-19T23:52:04.123Z,6.50
2019-02-19T23:54:34.976Z,6.40
2019-02-19T23:57:06.008Z,6.40
2019-02-19T23:59:37.060Z,6.40
